Time;durP1;ratioP1;P1;durP2;ratioP2;P2;SDS_P1;SDS_P2;PMS_P1;PMS_P2;Temp;Humidity;BMP_temperature;BMP_pressure;BME280_temperature;BME280_humidity;BME280_pressure;Samples;Min_cycle;Max_cycle;Signal;HPM_P1;HPM_P2
2021/11/22 00:01:08;;;;;;;34.55;18.50;;;3.90;99.90;;;;;;5093646;28;20050;-67
2021/11/22 00:03:36;;;;;;;32.58;18.08;;;4.00;99.90;;;;;;5092399;28;20243;-67
2021/11/22 00:06:02;;;;;;;35.47;18.65;;;4.10;99.90;;;;;;5093863;28;20032;-66
2021/11/22 00:08:28;;;;;;;30.48;18.10;;;4.20;99.90;;;;;;5092629;28;20101;-67
2021/11/22 00:10:54;;;;;;;32.80;18.48;;;4.10;99.90;;;;;;5093448;28;20467;-66
2021/11/22 00:13:20;;;;;;;33.80;18.55;;;4.10;99.90;;;;;;5092153;28;20485;-67
2021/11/22 00:15:45;;;;;;;33.20;18.85;;;4.00;99.90;;;;;;5093418;28;20027;-67
2021/11/22 00:18:11;;;;;;;33.03;19.00;;;4.00;99.90;;;;;;5093497;28;20024;-66
2021/11/22 00:20:37;;;;;;;33.72;17.83;;;4.00;99.90;;;;;;5092445;28;20035;-67
2021/11/22 00:23:03;;;;;;;37.80;19.17;;;4.00;99.90;;;;;;5092649;28;20032;-66
2021/11/22 00:25:29;;;;;;;39.95;20.10;;;4.00;99.90;;;;;;5092378;28;20033;-66
2021/11/22 00:27:55;;;;;;;35.88;20.10;;;4.00;99.90;;;;;;5092957;28;20028;-66
2021/11/22 00:30:20;;;;;;;38.15;19.52;;;4.00;99.90;;;;;;5092145;28;20043;-67
2021/11/22 00:32:46;;;;;;;40.58;20.40;;;4.00;99.90;;;;;;5092409;28;20036;-66
2021/11/22 00:35:14;;;;;;;40.33;21.02;;;4.00;99.90;;;;;;5092964;28;20035;-66
2021/11/22 00:37:41;;;;;;;48.90;22.63;;;4.00;99.90;;;;;;5092840;28;20035;-67
2021/11/22 00:40:12;;;;;;;48.47;22.88;;;4.00;99.90;;;;;;5093201;28;20030;-67
2021/11/22 00:42:39;;;;;;;40.78;21.33;;;4.00;99.90;;;;;;5090828;28;20036;-67
2021/11/22 00:45:06;;;;;;;45.95;22.02;;;4.00;99.90;;;;;;5092670;28;20544;-67
2021/11/22 00:47:33;;;;;;;40.97;22.23;;;4.00;99.90;;;;;;5092126;28;20597;-66
2021/11/22 00:49:59;;;;;;;45.65;21.10;;;4.00;99.90;;;;;;5092865;28;20037;-67
2021/11/22 00:52:25;;;;;;;45.15;20.90;;;4.00;99.90;;;;;;5091174;28;20106;-67
2021/11/22 00:54:50;;;;;;;49.30;23.20;;;4.00;99.90;;;;;;5092465;28;20111;-67
2021/11/22 00:57:16;;;;;;;42.53;21.63;;;4.10;99.90;;;;;;5091570;28;20028;-67
2021/11/22 00:59:42;;;;;;;46.42;21.48;;;4.10;99.90;;;;;;5092029;28;20032;-67
2021/11/22 01:02:07;;;;;;;44.53;21.27;;;4.00;99.90;;;;;;5092514;28;20040;-66
2021/11/22 01:04:36;;;;;;;45.67;22.13;;;4.00;99.90;;;;;;5091924;28;20032;-67
2021/11/22 01:07:03;;;;;;;43.50;21.30;;;4.00;99.90;;;;;;5092558;28;20035;-67
2021/11/22 01:09:29;;;;;;;52.30;23.75;;;4.00;99.90;;;;;;5091804;28;20058;-67
2021/11/22 01:11:55;;;;;;;40.72;19.75;;;4.10;99.90;;;;;;5092306;28;20443;-66
2021/11/22 01:14:21;;;;;;;47.15;22.08;;;4.10;99.90;;;;;;5091553;28;20114;-67
2021/11/22 01:16:47;;;;;;;44.97;21.73;;;4.20;99.90;;;;;;5090823;28;20024;-66
2021/11/22 01:19:12;;;;;;;49.15;22.30;;;4.20;99.90;;;;;;5091894;28;20031;-66
2021/11/22 01:21:39;;;;;;;45.35;21.77;;;4.30;99.90;;;;;;5089582;28;20074;-66
2021/11/22 01:24:04;;;;;;;54.33;23.73;;;4.20;99.90;;;;;;5090885;28;20076;-66
2021/11/22 01:26:30;;;;;;;51.97;23.02;;;4.20;99.90;;;;;;5090344;28;20111;-66
2021/11/22 01:28:56;;;;;;;48.05;22.10;;;4.10;99.90;;;;;;5091432;28;20107;-66
2021/11/22 01:31:22;;;;;;;45.42;21.88;;;4.10;99.90;;;;;;5090729;28;20027;-66
2021/11/22 01:33:48;;;;;;;49.95;23.20;;;4.10;99.90;;;;;;5092385;28;20028;-66
2021/11/22 01:36:13;;;;;;;48.10;23.23;;;4.10;99.90;;;;;;5092442;28;20032;-66
2021/11/22 01:38:39;;;;;;;49.03;22.27;;;4.10;99.90;;;;;;5091723;28;20365;-66
2021/11/22 01:41:05;;;;;;;54.45;23.20;;;4.10;99.90;;;;;;5092224;28;20032;-66
2021/11/22 01:43:32;;;;;;;48.65;22.40;;;4.10;99.90;;;;;;5091275;28;20020;-66
2021/11/22 01:45:58;;;;;;;52.58;24.25;;;4.10;99.90;;;;;;5091411;28;20089;-66
2021/11/22 01:48:24;;;;;;;50.70;23.00;;;4.10;99.90;;;;;;5091458;28;20049;-66
2021/11/22 01:50:52;;;;;;;51.53;23.63;;;4.10;99.90;;;;;;5091475;28;20069;-66
2021/11/22 01:53:19;;;;;;;54.83;23.48;;;4.10;99.90;;;;;;5090416;28;20073;-66
2021/11/22 01:55:44;;;;;;;47.03;22.63;;;4.10;99.90;;;;;;5090675;28;20420;-66
2021/11/22 01:58:11;;;;;;;52.95;25.55;;;4.10;99.90;;;;;;5091650;28;20081;-66
2021/11/22 02:00:49;;;;;;;54.20;23.48;;;4.10;99.90;;;;;;5091010;28;20099;-66
2021/11/22 02:03:15;;;;;;;53.63;24.58;;;4.10;99.90;;;;;;5091381;28;20040;-66
2021/11/22 02:05:42;;;;;;;48.75;22.92;;;4.10;99.90;;;;;;5091541;28;20031;-66
2021/11/22 02:08:08;;;;;;;64.00;25.42;;;4.10;99.90;;;;;;5091364;28;20599;-66
2021/11/22 02:10:35;;;;;;;54.53;24.95;;;4.10;99.90;;;;;;5090929;28;20027;-66
2021/11/22 02:13:02;;;;;;;59.17;24.92;;;4.00;99.90;;;;;;5091463;28;20056;-66
2021/11/22 02:15:28;;;;;;;63.70;25.60;;;4.00;99.90;;;;;;5090920;28;20028;-66
2021/11/22 02:17:54;;;;;;;58.80;26.35;;;4.00;99.90;;;;;;5091681;28;20106;-66
2021/11/22 02:20:29;;;;;;;61.35;26.77;;;4.00;99.90;;;;;;5091072;28;20031;-66
2021/11/22 02:22:58;;;;;;;64.45;26.13;;;3.90;99.90;;;;;;5090773;28;20038;-66
2021/11/22 02:25:26;;;;;;;62.58;26.60;;;3.90;99.90;;;;;;5090418;28;20040;-66
2021/11/22 02:27:52;;;;;;;58.83;25.58;;;4.00;99.90;;;;;;5090111;28;20528;-66
2021/11/22 02:30:29;;;;;;;53.38;25.55;;;4.00;99.90;;;;;;5091242;28;20107;-66
2021/11/22 02:32:56;;;;;;;54.88;25.48;;;4.00;99.90;;;;;;5091195;28;20040;-66
2021/11/22 02:35:21;;;;;;;50.85;24.85;;;4.10;99.90;;;;;;5090796;28;20024;-66
2021/11/22 02:37:48;;;;;;;55.85;24.30;;;4.10;99.90;;;;;;5090157;28;20032;-66
2021/11/22 02:40:14;;;;;;;53.05;25.77;;;4.10;99.90;;;;;;5091764;28;20077;-66
2021/11/22 02:42:42;;;;;;;58.70;25.77;;;4.00;99.90;;;;;;5090383;28;20036;-66
2021/11/22 02:45:13;;;;;;;50.42;25.17;;;4.00;99.90;;;;;;5090706;28;20032;-66
2021/11/22 02:47:41;;;;;;;51.88;23.25;;;4.00;99.90;;;;;;5090343;28;20044;-66
2021/11/22 02:50:08;;;;;;;47.65;23.98;;;4.00;99.90;;;;;;5091502;28;20058;-66
2021/11/22 02:52:35;;;;;;;52.17;23.83;;;3.90;99.90;;;;;;5090547;28;20036;-66
2021/11/22 02:55:01;;;;;;;58.22;25.35;;;3.90;99.90;;;;;;5091298;28;20115;-66
2021/11/22 02:57:26;;;;;;;56.90;27.38;;;3.90;99.90;;;;;;5092634;28;20106;-66
2021/11/22 02:59:54;;;;;;;52.38;24.00;;;3.90;99.90;;;;;;5095140;28;20027;-66
2021/11/22 03:02:20;;;;;;;54.53;25.83;;;3.90;99.90;;;;;;5093970;28;20028;-66
2021/11/22 03:04:46;;;;;;;62.03;26.25;;;4.00;99.90;;;;;;5094782;28;20027;-66
2021/11/22 03:07:13;;;;;;;56.15;25.52;;;4.00;99.90;;;;;;5094773;28;20024;-66
2021/11/22 03:09:39;;;;;;;61.30;26.75;;;3.90;99.90;;;;;;5094352;28;20028;-66
2021/11/22 03:12:11;;;;;;;58.80;28.00;;;3.90;99.90;;;;;;5095068;28;20111;-66
2021/11/22 03:14:38;;;;;;;55.05;26.67;;;3.90;99.90;;;;;;5093840;28;20066;-66
2021/11/22 03:17:04;;;;;;;65.00;28.13;;;3.90;99.90;;;;;;5094225;28;20538;-66
2021/11/22 03:19:30;;;;;;;62.50;27.90;;;3.90;99.90;;;;;;5093391;28;20485;-66
2021/11/22 03:21:58;;;;;;;61.60;29.17;;;3.90;99.90;;;;;;5094480;28;20059;-66
2021/11/22 03:24:25;;;;;;;63.53;28.63;;;3.80;99.90;;;;;;5094058;28;20029;-67
2021/11/22 03:26:51;;;;;;;69.13;29.42;;;3.80;99.90;;;;;;5094718;28;20028;-66
2021/11/22 03:29:23;;;;;;;61.90;29.10;;;3.80;99.90;;;;;;5094195;28;20110;-67
2021/11/22 03:31:49;;;;;;;63.65;28.83;;;3.90;99.90;;;;;;5093960;28;20111;-66
2021/11/22 03:34:15;;;;;;;67.05;28.88;;;3.80;99.90;;;;;;5094550;28;20115;-66
2021/11/22 03:36:41;;;;;;;67.50;27.85;;;3.80;99.90;;;;;;5093113;28;20082;-66
2021/11/22 03:39:23;;;;;;;66.68;29.38;;;3.80;99.90;;;;;;5094479;28;20077;-66
2021/11/22 03:41:49;;;;;;;60.38;27.52;;;3.90;99.90;;;;;;5094381;28;20063;-66
2021/11/22 03:44:15;;;;;;;63.22;27.90;;;3.90;99.90;;;;;;5093834;28;20461;-66
2021/11/22 03:46:47;;;;;;;67.35;28.67;;;3.90;99.90;;;;;;5092687;28;20052;-66
2021/11/22 03:49:12;;;;;;;61.33;29.00;;;3.90;99.90;;;;;;5094611;28;20055;-66
2021/11/22 03:51:39;;;;;;;63.60;28.80;;;3.90;99.90;;;;;;5093248;28;20055;-66
2021/11/22 03:54:05;;;;;;;62.28;29.10;;;3.90;99.90;;;;;;5094325;28;20032;-66
2021/11/22 03:56:30;;;;;;;76.95;30.25;;;3.90;99.90;;;;;;5092937;28;20469;-65
2021/11/22 03:58:57;;;;;;;65.03;29.85;;;3.90;99.90;;;;;;5093458;28;20039;-66
2021/11/22 04:01:23;;;;;;;67.88;29.65;;;3.90;99.90;;;;;;5093083;28;20111;-66
2021/11/22 04:03:49;;;;;;;70.30;29.67;;;3.80;99.90;;;;;;5093264;28;20118;-66
2021/11/22 04:06:15;;;;;;;65.90;29.55;;;3.80;99.90;;;;;;5093964;28;20032;-66
2021/11/22 04:08:42;;;;;;;65.05;30.45;;;3.80;99.90;;;;;;5092563;28;20032;-66
2021/11/22 04:11:08;;;;;;;67.85;29.70;;;3.80;99.90;;;;;;5093813;28;20032;-66
2021/11/22 04:13:34;;;;;;;59.72;28.92;;;3.90;99.90;;;;;;5092434;28;20039;-66
2021/11/22 04:16:01;;;;;;;68.10;30.02;;;3.80;99.90;;;;;;5073199;28;20029;-66
2021/11/22 04:18:29;;;;;;;65.00;29.75;;;3.80;99.90;;;;;;5072368;28;20034;-66
2021/11/22 04:20:55;;;;;;;63.38;28.90;;;3.80;99.90;;;;;;5073462;28;20024;-66
2021/11/22 04:23:23;;;;;;;68.40;29.75;;;3.80;99.90;;;;;;5088434;28;20350;-66
2021/11/22 04:25:49;;;;;;;65.50;30.55;;;3.90;99.90;;;;;;5093236;28;20082;-66
2021/11/22 04:28:15;;;;;;;59.75;29.30;;;3.90;99.90;;;;;;5093768;28;20028;-66
2021/11/22 04:30:41;;;;;;;55.90;27.90;;;4.00;99.90;;;;;;5092765;28;20024;-66
2021/11/22 04:33:07;;;;;;;58.40;28.38;;;4.00;99.90;;;;;;5092690;28;20043;-66
2021/11/22 04:35:37;;;;;;;58.92;27.88;;;4.00;99.90;;;;;;5092220;28;20495;-66
2021/11/22 04:38:03;;;;;;;57.50;28.33;;;4.00;99.90;;;;;;5093028;28;20032;-66
2021/11/22 04:40:29;;;;;;;58.15;28.25;;;4.00;99.90;;;;;;5092496;28;20043;-66
2021/11/22 04:42:55;;;;;;;57.72;28.58;;;4.00;99.90;;;;;;5092879;28;20032;-66
2021/11/22 04:45:28;;;;;;;58.72;26.73;;;4.00;99.90;;;;;;5092325;28;20032;-66
2021/11/22 04:47:54;;;;;;;64.90;29.30;;;3.90;99.90;;;;;;5093266;28;20044;-66
2021/11/22 04:50:23;;;;;;;60.42;28.33;;;3.90;99.90;;;;;;5092844;28;20043;-67
2021/11/22 04:52:50;;;;;;;65.07;30.77;;;3.90;99.90;;;;;;5092862;28;20059;-66
2021/11/22 04:55:20;;;;;;;60.67;27.90;;;3.90;99.90;;;;;;5072525;28;20035;-66
2021/11/22 04:57:47;;;;;;;67.25;29.60;;;3.90;99.90;;;;;;5092005;28;20043;-66
2021/11/22 05:00:16;;;;;;;64.45;28.75;;;3.90;99.90;;;;;;5092194;28;20369;-66
2021/11/22 05:02:43;;;;;;;59.22;28.48;;;3.80;99.90;;;;;;5090813;28;20030;-66
2021/11/22 05:05:10;;;;;;;61.20;27.77;;;3.80;99.90;;;;;;5091084;28;20036;-66
2021/11/22 05:07:36;;;;;;;60.63;27.35;;;3.80;99.90;;;;;;5088048;28;20043;-66
2021/11/22 05:10:04;;;;;;;57.67;25.88;;;3.80;99.90;;;;;;5091499;28;20042;-66
2021/11/22 05:12:30;;;;;;;56.20;26.88;;;3.80;99.90;;;;;;5090653;28;20032;-66
2021/11/22 05:14:56;;;;;;;52.30;25.27;;;3.80;99.90;;;;;;5088385;28;20107;-66
2021/11/22 05:17:23;;;;;;;51.92;24.38;;;3.90;99.90;;;;;;5090998;28;20028;-67
2021/11/22 05:19:49;;;;;;;48.78;24.83;;;3.90;99.90;;;;;;5090419;28;20021;-66
2021/11/22 05:22:19;;;;;;;49.80;25.70;;;3.90;99.90;;;;;;5088465;28;20039;-66
2021/11/22 05:24:49;;;;;;;56.05;26.27;;;3.80;99.90;;;;;;5090212;28;20024;-67
2021/11/22 05:27:29;;;;;;;52.17;24.65;;;3.80;99.90;;;;;;5090976;28;20085;-66
2021/11/22 05:29:55;;;;;;;53.40;26.30;;;3.80;99.90;;;;;;5091015;28;20113;-67
2021/11/22 05:32:24;;;;;;;55.47;26.42;;;3.80;99.90;;;;;;5090429;28;20043;-67
2021/11/22 05:34:52;;;;;;;53.67;26.33;;;3.80;99.90;;;;;;5090435;28;20481;-67
2021/11/22 05:37:19;;;;;;;56.33;24.60;;;3.80;99.90;;;;;;5089047;28;20107;-67
2021/11/22 05:39:46;;;;;;;54.65;26.55;;;3.80;99.90;;;;;;5091084;28;20040;-66
2021/11/22 05:42:12;;;;;;;49.80;25.38;;;3.90;99.90;;;;;;5091002;28;20031;-67
2021/11/22 05:44:38;;;;;;;56.13;24.70;;;3.90;99.90;;;;;;5090039;28;20354;-66
2021/11/22 05:47:07;;;;;;;49.53;24.90;;;3.80;99.90;;;;;;5090491;28;20054;-66
2021/11/22 05:49:35;;;;;;;51.30;24.27;;;3.90;99.90;;;;;;5089815;28;20024;-67
2021/11/22 05:52:03;;;;;;;47.92;24.02;;;3.90;99.90;;;;;;5090785;28;20419;-67
2021/11/22 05:54:32;;;;;;;56.88;24.75;;;3.90;99.90;;;;;;5089949;28;20053;-66
2021/11/22 05:56:59;;;;;;;45.53;22.75;;;3.90;99.90;;;;;;5090850;28;20088;-66
2021/11/22 05:59:25;;;;;;;42.13;21.38;;;4.00;99.90;;;;;;5089615;28;20032;-66
2021/11/22 06:01:51;;;;;;;41.05;22.02;;;3.90;99.90;;;;;;5089903;28;20024;-67
2021/11/22 06:04:17;;;;;;;42.05;22.13;;;4.00;99.90;;;;;;5090346;28;20413;-67
2021/11/22 06:06:43;;;;;;;40.55;20.90;;;4.00;99.90;;;;;;5090708;28;20563;-66
2021/11/22 06:09:09;;;;;;;43.75;22.45;;;4.10;99.90;;;;;;5091670;28;20052;-67
2021/11/22 06:11:34;;;;;;;45.53;21.35;;;4.00;99.90;;;;;;5090969;28;20032;-67
2021/11/22 06:14:00;;;;;;;46.05;23.40;;;4.00;99.90;;;;;;5091632;28;20154;-66
2021/11/22 06:16:26;;;;;;;43.80;23.27;;;4.00;99.90;;;;;;5090706;28;20350;-66
2021/11/22 06:18:51;;;;;;;43.90;20.90;;;4.00;99.90;;;;;;5091825;28;20064;-67
2021/11/22 06:21:17;;;;;;;42.80;21.25;;;4.00;99.90;;;;;;5091366;28;20020;-67
2021/11/22 06:23:43;;;;;;;41.63;20.90;;;4.00;99.90;;;;;;5090453;28;20024;-67
2021/11/22 06:26:08;;;;;;;41.35;21.42;;;4.00;99.90;;;;;;5091118;28;20370;-66
2021/11/22 06:28:34;;;;;;;39.30;19.42;;;4.00;99.90;;;;;;5090555;28;20024;-66
2021/11/22 06:31:00;;;;;;;36.00;19.50;;;4.00;99.90;;;;;;5093383;28;20454;-66
2021/11/22 06:33:26;;;;;;;36.90;19.90;;;4.00;99.90;;;;;;5094633;28;20024;-67
2021/11/22 06:35:51;;;;;;;35.35;19.58;;;4.00;99.90;;;;;;5095492;28;20055;-66
2021/11/22 06:38:18;;;;;;;34.97;18.30;;;4.00;99.90;;;;;;5095450;28;20028;-69
2021/11/22 06:40:45;;;;;;;37.33;18.85;;;4.00;99.90;;;;;;5094771;28;20664;-69
2021/11/22 06:43:11;;;;;;;36.33;18.88;;;4.00;99.90;;;;;;5095845;28;20046;-73
2021/11/22 06:45:38;;;;;;;34.60;17.10;;;4.00;99.90;;;;;;5094543;28;20035;-69
2021/11/22 06:48:04;;;;;;;30.67;16.75;;;4.00;99.90;;;;;;5094105;28;20044;-68
2021/11/22 06:50:30;;;;;;;30.55;18.08;;;4.00;99.90;;;;;;5094507;28;20488;-67
2021/11/22 06:52:57;;;;;;;33.53;17.80;;;4.00;99.90;;;;;;5095527;28;20064;-68
2021/11/22 06:55:29;;;;;;;33.55;17.25;;;4.00;99.90;;;;;;5094442;28;20036;-69
2021/11/22 06:57:55;;;;;;;31.98;17.88;;;3.90;99.90;;;;;;5095007;28;20024;-69
2021/11/22 07:00:22;;;;;;;32.22;16.90;;;3.90;99.90;;;;;;5094908;28;20135;-65
2021/11/22 07:02:51;;;;;;;30.02;16.77;;;4.00;99.90;;;;;;5094558;28;20024;-68
2021/11/22 07:05:18;;;;;;;28.75;15.95;;;4.00;99.90;;;;;;5095027;28;20035;-64
2021/11/22 07:07:44;;;;;;;27.90;16.25;;;4.00;99.90;;;;;;5093932;28;20672;-65
2021/11/22 07:10:10;;;;;;;27.70;16.15;;;4.00;99.90;;;;;;5095059;28;20032;-64
2021/11/22 07:12:36;;;;;;;28.27;15.60;;;4.00;99.90;;;;;;5093780;28;20036;-65
2021/11/22 07:15:03;;;;;;;27.65;14.13;;;4.00;99.90;;;;;;5093964;28;20039;-66
2021/11/22 07:17:29;;;;;;;25.40;14.10;;;4.10;99.90;;;;;;5093889;28;20024;-64
2021/11/22 07:19:55;;;;;;;22.02;14.25;;;4.10;99.90;;;;;;5094745;28;20028;-65
2021/11/22 07:22:21;;;;;;;25.88;14.30;;;4.10;99.90;;;;;;5094465;28;20038;-65
2021/11/22 07:24:46;;;;;;;24.05;13.73;;;4.10;99.90;;;;;;5094459;28;20131;-65
2021/11/22 07:27:13;;;;;;;23.25;13.93;;;4.10;99.90;;;;;;5094722;28;20111;-65
2021/11/22 07:29:41;;;;;;;23.00;13.18;;;4.20;99.90;;;;;;5095059;28;20115;-65
2021/11/22 07:32:08;;;;;;;23.63;12.60;;;4.30;99.90;;;;;;5094164;28;20066;-65
2021/11/22 07:34:34;;;;;;;24.17;13.23;;;4.30;99.90;;;;;;5093781;28;20477;-65
2021/11/22 07:37:00;;;;;;;20.23;12.45;;;4.40;99.90;;;;;;5094137;28;20054;-65
2021/11/22 07:39:33;;;;;;;21.25;12.93;;;4.40;99.90;;;;;;5094127;28;20085;-64
2021/11/22 07:41:59;;;;;;;21.55;12.75;;;4.50;99.90;;;;;;5092236;28;20115;-65
2021/11/22 07:44:25;;;;;;;21.90;13.30;;;4.50;99.90;;;;;;5094162;28;20520;-65
2021/11/22 07:46:53;;;;;;;20.70;12.18;;;4.50;99.90;;;;;;5090072;28;20036;-65
2021/11/22 07:49:20;;;;;;;22.30;13.35;;;4.50;99.90;;;;;;5080106;28;20073;-65
2021/11/22 07:51:46;;;;;;;22.63;13.52;;;4.50;99.90;;;;;;5093179;28;20030;-65
2021/11/22 07:54:12;;;;;;;24.77;13.95;;;4.40;99.90;;;;;;5100161;28;20111;-65
2021/11/22 07:56:38;;;;;;;23.45;13.10;;;4.40;99.90;;;;;;5095941;28;20484;-65
2021/11/22 07:59:03;;;;;;;24.80;14.05;;;4.40;99.90;;;;;;5097959;28;20039;-65
2021/11/22 08:01:30;;;;;;;23.65;13.25;;;4.50;99.90;;;;;;5091254;28;20024;-65
2021/11/22 08:03:56;;;;;;;22.08;13.40;;;4.40;99.90;;;;;;5102146;28;20024;-65
2021/11/22 08:06:24;;;;;;;19.63;12.48;;;4.50;99.90;;;;;;5095066;28;20039;-65
2021/11/22 08:08:49;;;;;;;22.48;12.95;;;4.50;99.90;;;;;;5095016;28;20048;-65
2021/11/22 08:13:42;;;;;;;23.45;13.15;;;4.50;99.90;;;;;;5092517;28;20036;-65
2021/11/22 08:16:08;;;;;;;23.17;13.35;;;4.50;99.90;;;;;;5097328;28;20028;-65
2021/11/22 08:18:36;;;;;;;21.85;13.45;;;4.60;99.90;;;;;;5092035;28;20318;-65
2021/11/22 08:21:04;;;;;;;21.23;13.20;;;4.60;99.90;;;;;;5092796;28;20500;-65
2021/11/22 08:23:31;;;;;;;23.35;13.10;;;4.60;99.90;;;;;;5091728;28;20111;-65
2021/11/22 08:25:57;;;;;;;21.70;13.25;;;4.60;99.90;;;;;;5092752;28;20370;-65
2021/11/22 08:28:23;;;;;;;26.98;13.63;;;4.60;99.90;;;;;;5092922;28;20572;-65
2021/11/22 08:30:52;;;;;;;21.58;13.07;;;4.60;99.90;;;;;;5092253;28;20649;-65
2021/11/22 08:33:19;;;;;;;24.38;13.73;;;4.60;99.90;;;;;;5093164;28;20423;-65
2021/11/22 08:35:45;;;;;;;22.08;12.80;;;4.60;99.90;;;;;;5091754;28;20388;-65
2021/11/22 08:38:12;;;;;;;18.30;12.85;;;4.60;99.90;;;;;;5092421;28;20538;-65
2021/11/22 08:40:42;;;;;;;21.10;13.30;;;4.80;99.90;;;;;;5092238;28;20056;-64
2021/11/22 08:43:11;;;;;;;24.48;13.98;;;4.80;99.90;;;;;;5093041;28;20078;-64
2021/11/22 08:45:39;;;;;;;24.15;13.93;;;4.80;99.90;;;;;;5091886;28;20055;-65
2021/11/22 08:48:07;;;;;;;25.10;13.50;;;4.70;99.90;;;;;;5085942;28;20443;-64
2021/11/22 08:50:34;;;;;;;23.10;13.52;;;4.70;99.90;;;;;;5091558;28;20028;-65
2021/11/22 08:53:00;;;;;;;24.38;13.15;;;4.70;99.90;;;;;;5091728;28;20046;-64
2021/11/22 08:55:27;;;;;;;22.00;13.35;;;4.80;99.90;;;;;;5090947;28;20046;-64
2021/11/22 08:57:54;;;;;;;23.60;13.57;;;4.90;99.90;;;;;;5091482;28;20535;-65
2021/11/22 09:00:32;;;;;;;21.75;13.65;;;4.80;99.90;;;;;;5092760;28;20335;-64
2021/11/22 09:02:58;;;;;;;22.92;13.27;;;4.90;99.90;;;;;;5092198;28;20107;-64
2021/11/22 09:05:25;;;;;;;21.48;12.95;;;4.90;99.90;;;;;;5092572;28;20073;-64
2021/11/22 09:07:51;;;;;;;23.20;13.13;;;4.90;99.90;;;;;;5091807;28;20032;-64
2021/11/22 09:10:18;;;;;;;21.60;12.07;;;4.90;99.90;;;;;;5090971;28;20020;-65
2021/11/22 09:12:44;;;;;;;21.35;12.73;;;4.90;99.90;;;;;;5091195;28;20036;-65
2021/11/22 09:15:09;;;;;;;23.63;13.88;;;5.00;99.90;;;;;;5092315;28;20320;-63
2021/11/22 09:17:35;;;;;;;22.42;13.07;;;5.00;99.90;;;;;;5091145;28;20035;-63
2021/11/22 09:20:01;;;;;;;22.25;13.70;;;4.90;99.90;;;;;;5110854;28;20023;-63
2021/11/22 09:22:27;;;;;;;24.15;14.25;;;5.00;99.90;;;;;;5103509;28;20488;-63
2021/11/22 09:24:53;;;;;;;21.92;12.88;;;4.90;99.90;;;;;;5091187;28;20024;-63
2021/11/22 09:27:18;;;;;;;21.98;13.30;;;4.90;99.90;;;;;;5091666;28;20039;-63
2021/11/22 09:29:44;;;;;;;19.52;12.05;;;5.00;99.90;;;;;;5091094;28;20020;-63
2021/11/22 09:32:10;;;;;;;21.30;12.05;;;5.10;99.90;;;;;;5090834;28;20027;-63
2021/11/22 09:34:37;;;;;;;24.25;12.90;;;5.20;99.90;;;;;;5091086;28;20358;-64
2021/11/22 09:37:03;;;;;;;21.63;12.57;;;5.20;99.90;;;;;;5090759;28;20028;-64
2021/11/22 09:39:30;;;;;;;21.02;12.63;;;5.20;99.90;;;;;;5091581;28;20027;-63
2021/11/22 09:41:56;;;;;;;20.17;12.98;;;5.20;99.90;;;;;;5091085;28;20069;-64
2021/11/22 09:44:23;;;;;;;22.25;13.07;;;5.10;99.90;;;;;;5071604;28;20470;-64
2021/11/22 09:46:52;;;;;;;22.70;12.55;;;5.20;99.90;;;;;;5085692;28;20050;-64
2021/11/22 09:49:19;;;;;;;20.30;12.48;;;5.30;99.90;;;;;;5091030;28;20085;-64
2021/11/22 09:51:45;;;;;;;24.00;13.02;;;5.30;99.90;;;;;;5091004;28;20156;-64
2021/11/22 09:54:11;;;;;;;20.13;12.18;;;5.40;99.90;;;;;;5090801;28;20043;-64
2021/11/22 09:56:37;;;;;;;22.25;12.35;;;5.40;99.90;;;;;;5090775;28;20139;-64
2021/11/22 09:59:04;;;;;;;19.70;12.75;;;5.50;99.90;;;;;;5091134;28;20503;-64
2021/11/22 10:01:38;;;;;;;21.23;12.48;;;5.50;99.90;;;;;;5091094;28;20111;-63
2021/11/22 10:04:11;;;;;;;19.63;11.98;;;5.40;99.90;;;;;;5088248;28;20054;-64
2021/11/22 10:07:04;;;;;;;19.20;12.65;;;5.50;99.90;;;;;;5091488;28;20081;-64
2021/11/22 10:09:51;;;;;;;24.45;12.43;;;5.50;99.90;;;;;;5088994;28;20028;-64
2021/11/22 10:12:24;;;;;;;23.08;12.73;;;5.50;99.90;;;;;;5091133;28;20020;-64
2021/11/22 10:14:56;;;;;;;23.73;12.82;;;5.50;99.90;;;;;;5089856;28;20032;-64
2021/11/22 10:17:24;;;;;;;20.48;13.35;;;5.50;99.90;;;;;;5091195;28;20509;-64
2021/11/22 10:20:08;;;;;;;22.48;13.00;;;5.60;99.90;;;;;;5090261;28;20020;-64
2021/11/22 10:22:48;;;;;;;23.00;13.68;;;5.60;99.90;;;;;;5080407;28;20114;-64
2021/11/22 10:25:24;;;;;;;22.02;12.27;;;5.70;99.90;;;;;;5090125;28;20032;-64
2021/11/22 10:27:51;;;;;;;18.02;11.73;;;5.80;99.90;;;;;;5090647;28;20028;-64
2021/11/22 10:30:29;;;;;;;18.50;11.95;;;5.90;99.90;;;;;;5091235;28;20020;-64
2021/11/22 10:32:56;;;;;;;19.65;10.82;;;5.90;99.90;;;;;;5090213;28;20020;-64
2021/11/22 10:35:24;;;;;;;23.15;11.60;;;6.00;99.90;;;;;;5091209;28;20032;-64
2021/11/22 10:37:55;;;;;;;17.50;10.82;;;6.00;99.90;;;;;;5089721;28;20476;-64
2021/11/22 10:40:21;;;;;;;20.50;12.13;;;6.10;99.90;;;;;;5070940;28;20033;-64
2021/11/22 10:42:47;;;;;;;21.63;11.88;;;6.00;99.90;;;;;;5070032;28;20036;-64
2021/11/22 10:45:44;;;;;;;18.73;11.90;;;6.10;99.90;;;;;;5069635;28;20040;-65
2021/11/22 10:48:26;;;;;;;22.00;12.68;;;6.00;99.90;;;;;;5074201;28;20465;-65
2021/11/22 10:51:08;;;;;;;18.63;12.15;;;6.10;99.90;;;;;;5089865;28;20035;-65
2021/11/22 10:53:57;;;;;;;17.42;11.52;;;6.10;99.90;;;;;;5090958;28;20036;-77
2021/11/22 10:56:25;;;;;;;18.33;11.75;;;6.20;99.90;;;;;;5091204;28;20043;-66
2021/11/22 10:59:13;;;;;;;21.48;12.60;;;6.20;99.90;;;;;;5088749;28;20028;-68
2021/11/22 11:01:46;;;;;;;21.73;12.25;;;6.20;99.90;;;;;;5069914;28;20028;-70
2021/11/22 11:04:14;;;;;;;20.13;12.07;;;6.20;99.90;;;;;;5070594;28;20029;-69
2021/11/22 11:06:47;;;;;;;20.08;13.07;;;6.20;99.90;;;;;;5070050;28;20500;-69
2021/11/22 11:09:27;;;;;;;22.55;13.27;;;6.20;99.90;;;;;;5083378;28;20256;-68
2021/11/22 11:11:55;;;;;;;;;;;6.20;99.90;;;;;;5090441;28;20028;-69
2021/11/22 11:14:21;;;;;;;22.65;12.43;;;6.10;99.90;;;;;;5090715;28;20011;-68
2021/11/22 11:16:46;;;;;;;21.33;12.63;;;6.20;99.90;;;;;;5085099;28;20032;-67
2021/11/22 11:19:17;;;;;;;20.77;12.35;;;6.10;99.90;;;;;;5089693;28;20027;-68
2021/11/22 11:21:48;;;;;;;22.38;13.00;;;6.10;99.90;;;;;;5092096;28;20119;-71
2021/11/22 11:24:16;;;;;;;17.80;10.90;;;6.00;99.90;;;;;;5093836;28;20499;-70
2021/11/22 11:26:44;;;;;;;23.13;12.38;;;6.10;99.90;;;;;;5093359;28;20157;-71
2021/11/22 11:29:10;;;;;;;23.70;12.07;;;6.10;99.90;;;;;;5093214;28;20028;-69
2021/11/22 11:31:39;;;;;;;22.15;12.32;;;6.00;99.90;;;;;;5093886;28;20350;-70
2021/11/22 11:34:10;;;;;;;17.98;10.88;;;6.00;99.90;;;;;;5094452;28;20024;-68
2021/11/22 11:36:48;;;;;;;17.73;10.70;;;6.10;99.90;;;;;;5093659;28;20393;-70
2021/11/22 11:39:51;;;;;;;22.85;12.98;;;6.00;99.90;;;;;;5093749;28;20349;-69
2021/11/22 11:42:39;;;;;;;20.52;11.90;;;6.00;99.90;;;;;;5073978;28;20029;-69
2021/11/22 11:45:28;;;;;;;17.83;11.02;;;6.00;99.90;;;;;;5073864;28;20029;-70
2021/11/22 11:48:12;;;;;;;24.95;11.32;;;6.00;99.90;;;;;;5087816;28;20044;-65
2021/11/22 11:50:43;;;;;;;16.98;11.00;;;6.00;99.90;;;;;;5083943;28;20024;-65
2021/11/22 11:53:12;;;;;;;15.63;9.57;;;6.00;99.90;;;;;;5095187;28;20024;-67
2021/11/22 11:55:39;;;;;;;22.23;9.52;;;6.00;99.90;;;;;;5093707;28;20024;-66
2021/11/22 11:58:27;;;;;;;15.00;9.50;;;6.00;99.90;;;;;;5091289;28;20115;-66
2021/11/22 12:01:00;;;;;;;14.88;8.63;;;6.00;99.90;;;;;;5092028;28;20093;-68
2021/11/22 12:03:29;;;;;;;12.18;8.05;;;6.00;99.90;;;;;;5093499;28;20473;-67
2021/11/22 12:05:58;;;;;;;15.30;8.02;;;6.00;99.90;;;;;;5092309;28;20024;-67
2021/11/22 12:08:32;;;;;;;16.83;8.43;;;6.00;99.90;;;;;;5093791;28;20051;-67
2021/11/22 12:11:05;;;;;;;11.52;7.00;;;5.90;99.90;;;;;;5092419;28;20515;-66
2021/11/22 12:13:53;;;;;;;9.07;6.68;;;5.90;99.90;;;;;;5089035;28;20117;-65
2021/11/22 12:16:42;;;;;;;12.90;7.70;;;6.00;99.90;;;;;;5092428;28;20099;-65
2021/11/22 12:19:46;;;;;;;17.45;7.38;;;5.90;99.90;;;;;;5093313;28;20032;-66
2021/11/22 12:22:16;;;;;;;11.57;6.63;;;5.80;99.90;;;;;;5092660;28;20016;-67
2021/11/22 12:24:44;;;;;;;;;;;5.90;99.90;;;;;;5093017;28;20051;-67
2021/11/22 12:27:27;;;;;;;13.27;6.38;;;5.90;99.90;;;;;;5083986;28;20635;-66
2021/11/22 12:29:54;;;;;;;12.60;6.03;;;5.90;99.90;;;;;;5092721;28;20031;-66
2021/11/22 12:32:31;;;;;;;15.00;6.38;;;5.90;99.90;;;;;;5096370;28;20609;-66
2021/11/22 12:34:59;;;;;;;16.75;7.35;;;5.90;99.90;;;;;;5098514;28;20155;-67
2021/11/22 12:37:27;;;;;;;13.07;6.50;;;5.80;99.90;;;;;;5092161;28;20045;-66
2021/11/22 12:39:54;;;;;;;11.88;6.55;;;5.80;99.90;;;;;;5107918;28;20933;-68
2021/11/22 12:42:22;;;;;;;7.72;5.55;;;5.80;99.90;;;;;;5095913;28;20500;-66
2021/11/22 12:45:00;;;;;;;10.88;6.47;;;5.90;99.90;;;;;;5091666;28;20055;-66
2021/11/22 12:47:28;;;;;;;14.88;6.28;;;5.90;99.90;;;;;;5090786;28;20439;-66